SCRIPT_RESULTS Banner
TAF for EBCV

by Dr. Günther Eichhorn

TAF for EBCV provided by aerobaticsweb.org
Current time: Wednesday, 5 Oct, 2022, 05:04 UTC
(This may take a minute, please be patient)


The most recent TAF forecast from EBCV in our system was generated at
2022/10/04 19:54
The forecast is:
EBCV 2022/10/04 19:54
TAF EBCV 041541Z 0419/0507 18010KT 9999 SCT180
BECMG 0420/0422 22010KT BKN030
BECMG 0501/0503 25015KT FEW210 BY EBWM



access provided by Dr. Guenther Eichhorn at aerobaticsweb.org